createdAt,value
2022-09-20T00:00:40.472Z,10.4
2022-09-20T00:01:56.754Z,10.3
2022-09-20T00:03:13.060Z,10.3
2022-09-20T00:04:29.344Z,10.3
2022-09-20T00:05:45.644Z,10.3
2022-09-20T00:07:01.932Z,10.2
2022-09-20T00:08:18.221Z,10.2
2022-09-20T00:09:34.512Z,10.2
2022-09-20T00:10:49.815Z,10.2
2022-09-20T00:12:06.114Z,10.2
2022-09-20T00:13:22.403Z,10.2
2022-09-20T00:14:38.704Z,10.2
2022-09-20T00:15:54.991Z,10.2
2022-09-20T00:17:11.283Z,10.2
2022-09-20T00:18:26.606Z,10.1
2022-09-20T00:19:42.892Z,10.1
2022-09-20T00:20:59.189Z,10.1
2022-09-20T00:22:15.480Z,10.1
2022-09-20T00:23:31.770Z,10.1
2022-09-20T00:24:48.065Z,10.1
2022-09-20T00:26:04.362Z,10.1
2022-09-20T00:27:20.643Z,10.1
2022-09-20T00:28:36.932Z,10.1
2022-09-20T00:29:53.234Z,10.1
2022-09-20T00:31:09.536Z,10.1
2022-09-20T00:32:25.825Z,10.1
2022-09-20T00:33:42.122Z,10.1
2022-09-20T00:34:57.418Z,10.1
2022-09-20T00:36:13.716Z,10
2022-09-20T00:37:30.011Z,10
2022-09-20T00:38:46.297Z,10
2022-09-20T00:40:02.598Z,10
2022-09-20T00:41:18.895Z,10
2022-09-20T00:42:35.168Z,10
2022-09-20T00:43:51.466Z,10
2022-09-20T00:45:07.761Z,10
2022-09-20T00:46:24.047Z,10
2022-09-20T00:48:56.647Z,10
2022-09-20T00:50:12.935Z,10
2022-09-20T00:51:28.248Z,10
2022-09-20T00:52:44.535Z,9.9
2022-09-20T00:54:00.822Z,9.9
2022-09-20T00:55:17.116Z,9.9
2022-09-20T00:56:33.426Z,9.9
2022-09-20T00:57:49.702Z,9.9
2022-09-20T00:59:05.995Z,9.9
2022-09-20T01:00:22.305Z,10
2022-09-20T01:01:38.594Z,10
2022-09-20T01:02:54.885Z,10
2022-09-20T01:04:11.179Z,10
2022-09-20T01:05:27.474Z,10
2022-09-20T01:06:43.759Z,10.1
2022-09-20T01:07:59.061Z,10
2022-09-20T01:09:15.356Z,10.1
2022-09-20T01:10:31.644Z,10.1
2022-09-20T01:11:47.953Z,10.1
2022-09-20T01:13:04.238Z,10.1
2022-09-20T01:14:20.524Z,10.1
2022-09-20T01:15:36.816Z,10.1
2022-09-20T01:16:53.112Z,10.1
2022-09-20T01:18:09.416Z,10
2022-09-20T01:19:25.709Z,10.1
2022-09-20T01:20:41.995Z,10.1
2022-09-20T01:21:58.298Z,10.1
2022-09-20T01:23:14.589Z,10
2022-09-20T01:24:29.888Z,10
2022-09-20T01:25:46.188Z,10
2022-09-20T01:27:02.477Z,10
2022-09-20T01:28:18.774Z,10
2022-09-20T01:29:35.060Z,10
2022-09-20T01:30:51.346Z,10
2022-09-20T01:32:07.639Z,10
2022-09-20T01:33:23.937Z,10
2022-09-20T01:34:40.233Z,10
2022-09-20T01:35:56.520Z,10
2022-09-20T01:37:12.807Z,10
2022-09-20T01:39:45.409Z,10.1
2022-09-20T01:41:00.714Z,10.1
2022-09-20T01:42:17.011Z,10.1
2022-09-20T01:43:33.296Z,10
2022-09-20T01:44:49.590Z,10
2022-09-20T01:46:05.887Z,10
2022-09-20T01:47:22.179Z,10
2022-09-20T01:48:38.467Z,10
2022-09-20T01:49:54.753Z,9.9
2022-09-20T01:51:11.051Z,10
2022-09-20T01:52:27.340Z,10
2022-09-20T01:53:43.642Z,9.9
2022-09-20T01:54:59.929Z,9.9
2022-09-20T01:56:16.222Z,10
2022-09-20T01:57:31.540Z,10
2022-09-20T01:58:47.830Z,10
2022-09-20T02:00:04.113Z,10
2022-09-20T02:01:20.411Z,10
2022-09-20T02:02:36.709Z,10
2022-09-20T02:03:52.999Z,10
2022-09-20T02:05:09.282Z,10
2022-09-20T02:06:25.577Z,10
2022-09-20T02:07:41.885Z,10
2022-09-20T02:08:58.159Z,10
2022-09-20T02:10:14.461Z,10
2022-09-20T02:11:30.748Z,10
2022-09-20T02:12:47.058Z,10
2022-09-20T02:14:02.365Z,10
2022-09-20T02:15:18.645Z,10
2022-09-20T02:16:34.939Z,10
2022-09-20T02:17:51.239Z,10
2022-09-20T02:19:07.525Z,10
2022-09-20T02:20:23.818Z,10.1
2022-09-20T02:21:40.118Z,10
2022-09-20T02:22:56.395Z,10
2022-09-20T02:24:12.700Z,10.1
2022-09-20T02:25:28.981Z,10
2022-09-20T02:26:45.276Z,10
2022-09-20T02:28:01.580Z,10.1
2022-09-20T02:29:17.865Z,10
2022-09-20T02:30:33.166Z,10
2022-09-20T02:31:49.475Z,10
2022-09-20T02:33:05.765Z,10
2022-09-20T02:34:22.053Z,10
2022-09-20T02:35:38.344Z,10
2022-09-20T02:36:54.630Z,10
2022-09-20T02:38:10.926Z,9.9
2022-09-20T02:39:27.226Z,10
2022-09-20T02:40:43.521Z,9.9
2022-09-20T02:41:59.801Z,9.9
2022-09-20T02:43:16.098Z,9.9
2022-09-20T02:44:32.392Z,9.9
2022-09-20T02:45:48.686Z,10
2022-09-20T02:47:03.987Z,9.9
2022-09-20T02:48:20.283Z,9.9
2022-09-20T02:49:36.574Z,9.9
2022-09-20T02:50:52.869Z,10
2022-09-20T02:52:09.168Z,10
2022-09-20T02:53:25.468Z,10
2022-09-20T02:54:41.759Z,10
2022-09-20T02:55:58.041Z,10
2022-09-20T02:57:14.340Z,9.9
2022-09-20T02:58:30.634Z,9.9
2022-09-20T02:59:46.917Z,9.9
2022-09-20T03:01:03.214Z,9.9
2022-09-20T03:02:19.512Z,10
2022-09-20T03:03:34.822Z,9.9
2022-09-20T03:04:51.110Z,9.9
2022-09-20T03:06:07.397Z,10
2022-09-20T03:07:23.701Z,9.9
2022-09-20T03:08:39.995Z,9.9
2022-09-20T03:09:56.289Z,9.9
2022-09-20T03:11:12.572Z,9.9
2022-09-20T03:12:28.857Z,10
2022-09-20T03:13:45.169Z,10
2022-09-20T03:15:01.446Z,10
2022-09-20T03:16:17.752Z,10
2022-09-20T03:17:34.028Z,10
2022-09-20T03:18:50.338Z,10
2022-09-20T03:20:05.642Z,10
2022-09-20T03:21:21.927Z,10
2022-09-20T03:22:38.222Z,10
2022-09-20T03:23:54.517Z,9.9
2022-09-20T03:25:10.800Z,9.9
2022-09-20T03:26:27.095Z,9.9
2022-09-20T03:27:43.390Z,9.9
2022-09-20T03:28:59.679Z,9.9
2022-09-20T03:30:15.971Z,9.9
2022-09-20T03:31:32.272Z,9.9
2022-09-20T03:32:48.575Z,9.9
2022-09-20T03:34:04.856Z,9.9
2022-09-20T03:35:21.151Z,9.9
2022-09-20T03:36:36.460Z,9.9
2022-09-20T03:37:52.758Z,9.9
2022-09-20T03:39:09.048Z,9.9
2022-09-20T03:40:25.328Z,9.9
2022-09-20T03:41:41.620Z,9.9
2022-09-20T03:42:57.915Z,9.9
2022-09-20T03:44:14.210Z,9.9
2022-09-20T03:45:30.504Z,9.9
2022-09-20T03:46:46.803Z,9.9
2022-09-20T03:48:03.095Z,9.9
2022-09-20T03:49:19.391Z,9.9
2022-09-20T03:50:35.673Z,9.9
2022-09-20T03:51:51.975Z,9.9
2022-09-20T03:53:07.277Z,9.9
2022-09-20T03:54:23.579Z,9.9
2022-09-20T03:55:39.874Z,9.9
2022-09-20T03:56:56.151Z,10
2022-09-20T03:58:12.462Z,10
2022-09-20T03:59:28.740Z,9.9
2022-09-20T04:00:45.036Z,9.9
2022-09-20T04:02:01.325Z,9.9
2022-09-20T04:03:17.620Z,9.9
2022-09-20T04:04:33.925Z,9.9
2022-09-20T04:05:50.210Z,9.9
2022-09-20T04:07:06.503Z,9.9
2022-09-20T04:08:22.795Z,10
2022-09-20T04:09:38.113Z,9.9
2022-09-20T04:10:54.398Z,9.9
2022-09-20T04:12:10.692Z,9.9
2022-09-20T04:13:26.978Z,9.9
2022-09-20T04:14:43.283Z,9.9
2022-09-20T04:15:59.560Z,9.8
2022-09-20T04:17:15.864Z,9.8
2022-09-20T04:18:32.153Z,9.9
2022-09-20T04:19:48.453Z,9.8
2022-09-20T04:21:04.733Z,9.8
2022-09-20T04:22:21.022Z,9.9
2022-09-20T04:23:37.328Z,9.8
2022-09-20T04:24:53.610Z,9.8
2022-09-20T04:26:08.927Z,9.8
2022-09-20T04:27:25.224Z,9.8
2022-09-20T04:28:41.488Z,9.8
2022-09-20T04:29:57.730Z,9.8
2022-09-20T04:31:13.975Z,9.8
2022-09-20T04:32:30.206Z,9.8
2022-09-20T04:33:45.461Z,9.8
2022-09-20T04:35:01.719Z,9.8
2022-09-20T04:36:17.949Z,9.8
2022-09-20T04:37:34.206Z,9.8
2022-09-20T04:38:50.446Z,9.8
2022-09-20T04:40:06.682Z,9.8
2022-09-20T04:41:22.926Z,9.8
2022-09-20T04:42:39.159Z,9.8
2022-09-20T04:43:55.395Z,9.8
2022-09-20T04:45:11.640Z,9.8
2022-09-20T04:46:27.875Z,9.8
2022-09-20T04:47:44.105Z,9.8
2022-09-20T04:49:00.342Z,9.8
2022-09-20T04:50:15.600Z,9.8
2022-09-20T04:51:31.836Z,9.8
2022-09-20T04:52:48.085Z,9.8
2022-09-20T04:54:04.315Z,9.8
2022-09-20T04:55:20.560Z,9.7
2022-09-20T04:56:36.809Z,9.7
2022-09-20T04:57:53.036Z,9.7
2022-09-20T04:59:09.278Z,9.8
2022-09-20T05:00:25.512Z,9.8
2022-09-20T05:01:41.750Z,9.8
2022-09-20T05:02:57.991Z,9.8
2022-09-20T05:04:14.237Z,9.8
2022-09-20T05:05:30.461Z,9.7
2022-09-20T05:06:45.735Z,9.8
2022-09-20T05:08:01.969Z,9.8
2022-09-20T05:09:18.212Z,9.7
2022-09-20T05:10:34.441Z,9.8
2022-09-20T05:11:50.679Z,9.8
2022-09-20T05:13:06.909Z,9.8
2022-09-20T05:14:23.166Z,9.8
2022-09-20T05:15:39.390Z,9.8
2022-09-20T05:16:55.629Z,9.8
2022-09-20T05:18:11.878Z,9.8
2022-09-20T05:19:28.107Z,9.8
2022-09-20T05:20:44.343Z,9.8
2022-09-20T05:22:00.599Z,9.8
2022-09-20T05:23:15.841Z,9.8
2022-09-20T05:24:32.084Z,9.8
2022-09-20T05:25:48.316Z,9.8
2022-09-20T05:27:04.560Z,9.8
2022-09-20T05:28:20.791Z,9.8
2022-09-20T05:29:37.037Z,9.8
2022-09-20T05:30:53.269Z,9.8
2022-09-20T05:32:09.508Z,9.8
2022-09-20T05:33:25.756Z,9.8
2022-09-20T05:34:41.998Z,9.8
2022-09-20T05:35:58.233Z,9.8
2022-09-20T05:37:14.476Z,9.8
2022-09-20T05:38:30.719Z,9.8
2022-09-20T05:39:45.960Z,9.8
2022-09-20T05:41:02.202Z,9.9
2022-09-20T05:42:18.439Z,9.9
2022-09-20T05:43:34.685Z,9.9
2022-09-20T05:44:50.911Z,9.9
2022-09-20T05:46:07.158Z,9.8
2022-09-20T05:47:23.389Z,9.9
2022-09-20T05:48:39.625Z,9.8
2022-09-20T05:49:55.866Z,9.9
2022-09-20T05:51:12.103Z,9.9
2022-09-20T05:52:28.358Z,10
2022-09-20T05:53:44.599Z,9.9
2022-09-20T05:55:00.836Z,9.9
2022-09-20T05:56:16.079Z,9.9
2022-09-20T05:57:32.318Z,9.9
2022-09-20T05:58:48.554Z,9.9
2022-09-20T06:00:04.790Z,9.9
2022-09-20T06:01:21.030Z,9.9
2022-09-20T06:02:37.282Z,9.9
2022-09-20T06:03:53.507Z,9.9
2022-09-20T06:05:09.742Z,9.9
2022-09-20T06:07:42.231Z,10
2022-09-20T06:08:58.477Z,10
2022-09-20T06:10:14.699Z,10
2022-09-20T06:11:30.937Z,10.1
2022-09-20T06:14:02.434Z,10
2022-09-20T06:15:18.669Z,10.1
2022-09-20T06:16:34.915Z,10.1
2022-09-20T06:17:51.158Z,10.1
2022-09-20T06:19:07.000Z,10.1
2022-09-20T06:20:23.634Z,10.1
2022-09-20T06:21:39.866Z,10.1
2022-09-20T06:22:56.100Z,10.1
2022-09-20T06:24:12.355Z,10.1
2022-09-20T06:25:28.594Z,10.2
2022-09-20T06:26:44.835Z,10.1
2022-09-20T06:28:01.060Z,10.2
2022-09-20T06:29:16.329Z,10.2
2022-09-20T06:30:32.552Z,10.2
2022-09-20T06:31:48.806Z,10.3
2022-09-20T06:33:05.040Z,10.3
2022-09-20T06:34:21.270Z,10.3
2022-09-20T06:35:37.521Z,10.3
2022-09-20T06:36:53.750Z,10.2
2022-09-20T06:38:09.982Z,10.2
2022-09-20T06:39:26.233Z,10.3
2022-09-20T06:40:42.475Z,10.4
2022-09-20T06:41:58.702Z,10.4
2022-09-20T06:43:14.950Z,10.4
2022-09-20T06:44:31.196Z,10.4
2022-09-20T06:45:46.436Z,10.5
2022-09-20T06:47:02.682Z,10.5
2022-09-20T06:48:18.920Z,10.5
2022-09-20T06:49:35.156Z,10.6
2022-09-20T06:50:51.402Z,10.5
2022-09-20T06:52:07.000Z,10.5
2022-09-20T06:53:23.869Z,10.5
2022-09-20T06:54:40.121Z,10.5
2022-09-20T06:55:56.343Z,10.5
2022-09-20T06:57:12.595Z,10.5
2022-09-20T06:58:28.818Z,10.6
2022-09-20T06:59:45.056Z,10.6
2022-09-20T07:01:01.303Z,10.7
2022-09-20T07:02:16.559Z,10.7
2022-09-20T07:03:32.808Z,10.7
2022-09-20T07:04:49.029Z,10.7
2022-09-20T07:06:05.272Z,10.6
2022-09-20T07:07:21.510Z,10.7
2022-09-20T07:08:37.756Z,10.7
2022-09-20T07:09:53.986Z,10.7
2022-09-20T07:11:10.236Z,10.8
2022-09-20T07:12:26.464Z,10.7
2022-09-20T07:13:42.705Z,10.8
2022-09-20T07:14:58.948Z,10.7
2022-09-20T07:16:15.188Z,10.8
2022-09-20T07:17:31.414Z,10.7
2022-09-20T07:18:46.686Z,10.8
2022-09-20T07:20:02.919Z,10.7
2022-09-20T07:21:19.148Z,10.8
2022-09-20T07:22:35.389Z,10.8
2022-09-20T07:23:51.625Z,10.9
2022-09-20T07:25:07.876Z,10.9
2022-09-20T07:26:24.113Z,11
2022-09-20T07:27:40.339Z,11
2022-09-20T07:28:56.596Z,11
2022-09-20T07:30:12.822Z,11.1
2022-09-20T07:31:29.057Z,11.2
2022-09-20T07:32:45.309Z,11.2
2022-09-20T07:34:01.532Z,11.2
2022-09-20T07:35:16.790Z,11.1
2022-09-20T07:36:33.039Z,11.2
2022-09-20T07:37:49.280Z,11.2
2022-09-20T07:39:05.523Z,11.1
2022-09-20T07:40:21.756Z,11.1
2022-09-20T07:41:37.984Z,11.1
2022-09-20T07:42:54.237Z,11.1
2022-09-20T07:44:10.460Z,11.1
2022-09-20T07:45:26.717Z,11.1
2022-09-20T07:46:42.948Z,11.1
2022-09-20T07:47:59.192Z,11.1
2022-09-20T07:49:15.415Z,11.2
2022-09-20T07:50:31.658Z,11.1
2022-09-20T07:51:46.909Z,11.1
2022-09-20T07:53:03.145Z,11.1
2022-09-20T07:54:19.388Z,11.1
2022-09-20T07:55:35.643Z,11.1
2022-09-20T07:56:51.874Z,11.1
2022-09-20T07:58:08.109Z,11.1
2022-09-20T07:59:24.345Z,11.1
2022-09-20T08:00:40.585Z,11.1
2022-09-20T08:01:56.820Z,11.1
2022-09-20T08:03:13.062Z,11.1
2022-09-20T08:04:29.303Z,11.1
2022-09-20T08:05:45.544Z,11.2
2022-09-20T08:07:01.774Z,11.3
2022-09-20T08:08:17.043Z,11.3
2022-09-20T08:09:33.265Z,11.4
2022-09-20T08:10:49.515Z,11.5
2022-09-20T08:12:05.759Z,11.5
2022-09-20T08:13:21.998Z,11.4
2022-09-20T08:14:38.220Z,11.4
2022-09-20T08:15:54.470Z,11.4
2022-09-20T08:17:10.713Z,11.4
2022-09-20T08:18:26.953Z,11.4
2022-09-20T08:19:43.189Z,11.4
2022-09-20T08:20:59.424Z,11.4
2022-09-20T08:22:15.666Z,11.4
2022-09-20T08:23:31.907Z,11.4
2022-09-20T08:24:47.163Z,11.5
2022-09-20T08:26:03.403Z,11.5
2022-09-20T08:27:19.631Z,11.5
2022-09-20T08:29:52.120Z,11.7
2022-09-20T08:31:08.346Z,11.7
2022-09-20T08:32:24.594Z,11.8
2022-09-20T08:33:40.838Z,12
2022-09-20T08:34:57.071Z,12.1
2022-09-20T08:36:13.301Z,12.2
2022-09-20T08:37:29.534Z,12.3
2022-09-20T08:38:45.791Z,12.4
2022-09-20T08:40:02.020Z,12.4
2022-09-20T08:41:17.285Z,12.4
2022-09-20T08:42:33.514Z,12.3
2022-09-20T08:43:49.759Z,12.3
2022-09-20T08:45:05.989Z,12.2
2022-09-20T08:46:22.222Z,12.2
2022-09-20T08:47:38.465Z,12.2
2022-09-20T08:48:53.719Z,12.3
2022-09-20T08:50:09.963Z,12.3
2022-09-20T08:52:42.444Z,12.1
2022-09-20T08:53:58.688Z,12.1
2022-09-20T08:55:14.932Z,12
2022-09-20T08:56:31.161Z,11.9
2022-09-20T08:57:47.405Z,11.9
2022-09-20T08:59:03.630Z,11.8
2022-09-20T09:00:19.872Z,11.8
2022-09-20T09:01:36.125Z,11.8
2022-09-20T09:02:52.362Z,11.9
2022-09-20T09:04:08.584Z,11.9
2022-09-20T09:05:23.845Z,12
2022-09-20T09:06:40.079Z,12
2022-09-20T09:07:56.333Z,12
2022-09-20T09:09:12.568Z,12
2022-09-20T09:10:28.804Z,12
2022-09-20T09:11:45.047Z,12
2022-09-20T09:14:17.517Z,12
2022-09-20T09:15:33.761Z,12
2022-09-20T09:16:50.004Z,12.2
2022-09-20T09:18:06.241Z,12.4
2022-09-20T09:19:22.475Z,12.7
2022-09-20T09:20:38.713Z,13.4
2022-09-20T09:21:53.976Z,13.4
2022-09-20T09:23:10.202Z,13.3
2022-09-20T09:24:26.439Z,13.2
2022-09-20T09:25:42.677Z,13
2022-09-20T09:26:58.917Z,12.9
2022-09-20T09:28:15.163Z,12.6
2022-09-20T09:29:31.392Z,12.5
2022-09-20T09:30:47.646Z,12.5
2022-09-20T09:32:03.873Z,12.5
2022-09-20T09:33:20.114Z,12.5
2022-09-20T09:34:36.357Z,12.5
2022-09-20T09:35:52.587Z,12.6
2022-09-20T09:37:08.831Z,12.7
2022-09-20T09:38:24.083Z,12.9
2022-09-20T09:39:40.316Z,12.9
2022-09-20T09:40:56.556Z,12.9
2022-09-20T09:42:12.791Z,12.9
2022-09-20T09:43:29.044Z,12.9
2022-09-20T09:44:45.268Z,12.9
2022-09-20T09:46:01.527Z,12.9
2022-09-20T09:47:17.751Z,12.8
2022-09-20T09:48:33.990Z,12.9
2022-09-20T09:49:50.226Z,12.9
2022-09-20T09:51:06.473Z,12.9
2022-09-20T09:52:22.713Z,13
2022-09-20T09:53:38.946Z,13
2022-09-20T09:54:54.195Z,13
2022-09-20T09:56:10.433Z,13.2
2022-09-20T09:57:26.674Z,13.5
2022-09-20T09:58:42.924Z,14.1
2022-09-20T09:59:59.156Z,14.7
2022-09-20T10:01:15.403Z,14.9
2022-09-20T10:02:31.632Z,14.7
2022-09-20T10:03:47.878Z,14.7
2022-09-20T10:05:04.109Z,14.6
2022-09-20T10:06:20.356Z,15.5
2022-09-20T10:07:36.596Z,16.4
2022-09-20T10:08:52.835Z,17.5
2022-09-20T10:10:09.061Z,17.4
2022-09-20T10:11:24.321Z,17.5
2022-09-20T10:12:40.555Z,18.3
2022-09-20T10:13:56.801Z,18.7
2022-09-20T10:15:13.030Z,18.2
2022-09-20T10:16:29.281Z,17.9
2022-09-20T10:17:45.523Z,18.3
2022-09-20T10:19:01.747Z,18.3
2022-09-20T10:20:17.981Z,18.1
2022-09-20T10:21:34.223Z,18.3
2022-09-20T10:22:50.456Z,18.9
2022-09-20T10:24:06.704Z,19.6
2022-09-20T10:25:22.951Z,19.4
2022-09-20T10:26:39.180Z,18.9
2022-09-20T10:27:54.441Z,18.3
2022-09-20T10:29:10.680Z,18.8
2022-09-20T10:30:26.916Z,18.7
2022-09-20T10:31:43.142Z,18
2022-09-20T10:32:59.395Z,17.2
2022-09-20T10:34:15.625Z,16.7
2022-09-20T10:35:31.878Z,16.7
2022-09-20T10:36:48.115Z,17.3
2022-09-20T10:38:04.354Z,17.9
2022-09-20T10:39:20.592Z,18.5
2022-09-20T10:40:36.834Z,18
2022-09-20T10:41:53.064Z,17.7
2022-09-20T10:43:09.307Z,17.5
2022-09-20T10:44:24.566Z,17.3
2022-09-20T10:45:40.807Z,16.7
2022-09-20T10:46:57.035Z,16.4
2022-09-20T10:48:13.272Z,16.2
2022-09-20T10:49:29.510Z,16
2022-09-20T10:50:45.761Z,16
2022-09-20T10:52:02.008Z,16.1
2022-09-20T10:53:18.245Z,17.3
2022-09-20T10:54:34.471Z,18.6
2022-09-20T10:55:50.721Z,19
2022-09-20T10:57:06.963Z,18.3
2022-09-20T10:58:23.208Z,17.9
2022-09-20T10:59:39.436Z,18.8
2022-09-20T11:00:54.697Z,19.7
2022-09-20T11:02:10.932Z,20.1
2022-09-20T11:03:27.167Z,20.7
2022-09-20T11:04:43.407Z,20.9
2022-09-20T11:07:15.888Z,21.3
2022-09-20T11:08:32.128Z,21.3
2022-09-20T11:09:48.374Z,21.4
2022-09-20T11:11:04.598Z,21.1
2022-09-20T11:12:20.850Z,21.7
2022-09-20T11:13:37.085Z,22.4
2022-09-20T11:14:53.328Z,22.9
2022-09-20T11:16:09.554Z,22.1
2022-09-20T11:17:24.804Z,21.8
2022-09-20T11:18:41.040Z,21.4
2022-09-20T11:19:57.294Z,21.3
2022-09-20T11:21:13.524Z,21.8
2022-09-20T11:22:29.768Z,20.6
2022-09-20T11:23:46.011Z,20
2022-09-20T11:25:02.240Z,18.9
2022-09-20T11:26:18.486Z,17.9
2022-09-20T11:27:34.721Z,18.5
2022-09-20T11:28:50.973Z,19.3
2022-09-20T11:30:07.207Z,19.8
2022-09-20T11:31:23.434Z,19.4
2022-09-20T11:32:39.684Z,19
2022-09-20T11:33:54.946Z,18.6
2022-09-20T11:35:11.170Z,18.3
2022-09-20T11:36:27.420Z,18.8
2022-09-20T11:37:43.659Z,19.6
2022-09-20T11:38:59.910Z,20.4
2022-09-20T11:40:16.133Z,21.3
2022-09-20T11:41:32.376Z,22.1
2022-09-20T11:42:48.623Z,22.8
2022-09-20T11:44:04.863Z,23.3
2022-09-20T11:45:21.102Z,23.6
2022-09-20T11:46:37.338Z,23.6
2022-09-20T11:47:53.566Z,23
2022-09-20T11:49:09.808Z,22
2022-09-20T11:50:25.061Z,21
2022-09-20T11:51:41.293Z,20
2022-09-20T11:52:57.543Z,18.9
2022-09-20T11:54:13.785Z,18.1
2022-09-20T11:55:30.027Z,17.2
2022-09-20T11:56:46.255Z,16.6
2022-09-20T11:58:02.495Z,16.2
2022-09-20T11:59:18.723Z,15.8
2022-09-20T12:00:34.964Z,15.6
2022-09-20T12:01:51.206Z,15.6
2022-09-20T12:03:07.457Z,15.4
2022-09-20T12:04:23.694Z,15.5
2022-09-20T12:05:39.922Z,15.8
2022-09-20T12:06:55.181Z,17.2
2022-09-20T12:08:11.418Z,17.5
2022-09-20T12:09:27.661Z,18.2
2022-09-20T12:10:43.914Z,19.4
2022-09-20T12:12:00.134Z,20.3
2022-09-20T12:13:16.373Z,21
2022-09-20T12:14:32.615Z,21.1
2022-09-20T12:15:48.850Z,21.5
2022-09-20T12:17:05.096Z,21.6
2022-09-20T12:18:21.331Z,20.7
2022-09-20T12:19:37.571Z,19.6
2022-09-20T12:20:53.813Z,18.5
2022-09-20T12:22:10.040Z,17.6
2022-09-20T12:23:25.305Z,16.7
2022-09-20T12:24:41.533Z,16
2022-09-20T12:25:57.784Z,15.2
2022-09-20T12:27:14.019Z,14.9
2022-09-20T12:29:46.489Z,14.6
2022-09-20T12:31:02.726Z,14.5
2022-09-20T12:32:18.965Z,14.5
2022-09-20T12:33:35.206Z,14.5
2022-09-20T12:34:51.439Z,14.5
2022-09-20T12:36:07.694Z,14.6
2022-09-20T12:37:23.928Z,14.6
2022-09-20T12:38:40.158Z,15.3
2022-09-20T12:39:55.417Z,16.3
2022-09-20T12:41:11.661Z,17.5
2022-09-20T12:42:27.896Z,18.6
2022-09-20T12:43:44.132Z,19.4
2022-09-20T12:45:00.375Z,20
2022-09-20T12:46:16.620Z,20.6
2022-09-20T12:47:32.855Z,21.1
2022-09-20T12:48:49.094Z,21.4
2022-09-20T12:50:05.318Z,21.3
2022-09-20T12:51:21.562Z,21.3
2022-09-20T12:52:37.811Z,21.2
2022-09-20T12:53:54.050Z,21.4
2022-09-20T12:55:10.276Z,21.5
2022-09-20T12:56:25.542Z,21.7
2022-09-20T12:57:41.767Z,22.1
2022-09-20T12:58:58.007Z,22.4
2022-09-20T13:00:14.244Z,22.7
2022-09-20T13:01:30.483Z,22.5
2022-09-20T13:02:46.715Z,22.7
2022-09-20T13:04:01.994Z,22.5
2022-09-20T13:05:18.213Z,21.8
2022-09-20T13:06:34.465Z,21.5
2022-09-20T13:07:50.691Z,21.7
2022-09-20T13:09:06.929Z,21.1
2022-09-20T13:10:23.174Z,20.4
2022-09-20T13:11:39.406Z,19.9
2022-09-20T13:12:55.647Z,19.6
2022-09-20T13:14:11.885Z,19.1
2022-09-20T13:15:28.143Z,19.5
2022-09-20T13:16:44.382Z,20.1
2022-09-20T13:18:00.627Z,20.5
2022-09-20T13:19:16.852Z,20.9
2022-09-20T13:20:32.101Z,21.1
2022-09-20T13:21:48.347Z,20.9
2022-09-20T13:23:04.579Z,21.4
2022-09-20T13:24:20.836Z,20.8
2022-09-20T13:25:37.072Z,20.7
2022-09-20T13:26:53.318Z,21.2
2022-09-20T13:28:09.547Z,21.7
2022-09-20T13:29:25.792Z,22.1
2022-09-20T13:30:42.021Z,22.3
2022-09-20T13:31:58.276Z,22.6
2022-09-20T13:33:14.517Z,22.3
2022-09-20T13:34:30.741Z,22.1
2022-09-20T13:35:46.976Z,22
2022-09-20T13:37:02.243Z,22.1
2022-09-20T13:38:18.471Z,22.2
2022-09-20T13:39:34.725Z,22.2
2022-09-20T13:40:50.952Z,22.4
2022-09-20T13:42:07.192Z,22.5
2022-09-20T13:43:23.435Z,22.4
2022-09-20T13:44:39.678Z,22.2
2022-09-20T13:45:55.903Z,22.4
2022-09-20T13:47:12.146Z,21.9
2022-09-20T13:48:28.389Z,20.6
2022-09-20T13:49:44.625Z,19.9
2022-09-20T13:51:00.863Z,19.4
2022-09-20T13:52:17.093Z,19.1
2022-09-20T13:53:32.375Z,19
2022-09-20T13:54:48.598Z,19.4
2022-09-20T13:56:04.836Z,19.6
2022-09-20T13:57:21.090Z,19.8
2022-09-20T13:58:37.314Z,20.2
2022-09-20T13:59:53.557Z,20.2
2022-09-20T14:01:09.793Z,20.1
2022-09-20T14:02:26.040Z,20
2022-09-20T14:03:42.283Z,19.9
2022-09-20T14:04:58.519Z,20.2
2022-09-20T14:06:14.760Z,20.6
2022-09-20T14:07:30.990Z,20.7
2022-09-20T14:08:47.228Z,20.5
2022-09-20T14:10:02.484Z,20.2
2022-09-20T14:11:18.722Z,20.3
2022-09-20T14:12:34.955Z,20.4
2022-09-20T14:13:51.195Z,20.4
2022-09-20T14:15:07.441Z,20.3
2022-09-20T14:16:23.672Z,20.4
2022-09-20T14:17:39.914Z,20.5
2022-09-20T14:18:56.148Z,20.7
2022-09-20T14:21:28.620Z,21.1
2022-09-20T14:22:44.867Z,21.2
2022-09-20T14:24:01.107Z,21.2
2022-09-20T14:25:17.336Z,21.4
2022-09-20T14:26:32.603Z,21.1
2022-09-20T14:27:48.834Z,21.2
2022-09-20T14:29:05.069Z,21.2
2022-09-20T14:30:21.307Z,21.1
2022-09-20T14:31:37.540Z,21.2
2022-09-20T14:32:53.794Z,21.2
2022-09-20T14:34:10.025Z,21.3
2022-09-20T14:36:42.511Z,21.4
2022-09-20T14:37:58.744Z,21.5
2022-09-20T14:39:14.979Z,21.6
2022-09-20T14:40:31.213Z,21.6
2022-09-20T14:41:47.470Z,21.6
2022-09-20T14:43:02.716Z,21.4
2022-09-20T14:44:18.959Z,21.4
2022-09-20T14:45:35.196Z,21.2
2022-09-20T14:46:51.419Z,21.1
2022-09-20T14:48:07.673Z,21
2022-09-20T14:49:23.906Z,21
2022-09-20T14:50:40.131Z,20.9
2022-09-20T14:51:56.379Z,20.9
2022-09-20T14:53:12.614Z,20.4
2022-09-20T14:54:28.856Z,19.9
2022-09-20T14:55:45.099Z,19.6
2022-09-20T14:57:01.339Z,19.1
2022-09-20T14:58:17.584Z,18.5
2022-09-20T14:59:32.846Z,18.7
2022-09-20T15:00:49.076Z,18.9
2022-09-20T15:02:05.316Z,19.3
2022-09-20T15:03:21.551Z,19.6
2022-09-20T15:04:37.792Z,20
2022-09-20T15:05:54.025Z,20.3
2022-09-20T15:07:10.259Z,20.5
2022-09-20T15:08:26.514Z,20.5
2022-09-20T15:09:42.742Z,20.5
2022-09-20T15:10:58.992Z,20.5
2022-09-20T15:12:15.226Z,20.5
2022-09-20T15:13:31.459Z,20.5
2022-09-20T15:14:47.709Z,20.3
2022-09-20T15:16:02.961Z,19.9
2022-09-20T15:17:19.181Z,19.6
2022-09-20T15:18:35.411Z,19.3
2022-09-20T15:19:51.638Z,18.9
2022-09-20T15:21:07.890Z,18.7
2022-09-20T15:22:24.125Z,18.4
2022-09-20T15:23:40.368Z,18.1
2022-09-20T15:24:56.592Z,18
2022-09-20T15:26:12.829Z,17.9
2022-09-20T15:27:29.076Z,17.7
2022-09-20T15:28:45.313Z,17.5
2022-09-20T15:30:01.561Z,17.4
2022-09-20T15:31:17.791Z,17.4
2022-09-20T15:32:33.051Z,17.3
2022-09-20T15:33:49.287Z,17.2
2022-09-20T15:35:05.530Z,17.1
2022-09-20T15:36:21.779Z,17.1
2022-09-20T15:37:38.004Z,17
2022-09-20T15:38:54.250Z,17
2022-09-20T15:40:10.470Z,16.9
2022-09-20T15:41:26.713Z,16.7
2022-09-20T15:42:42.948Z,16.6
2022-09-20T15:43:59.198Z,16.5
2022-09-20T15:45:15.430Z,16.5
2022-09-20T15:46:31.670Z,16.4
2022-09-20T15:47:47.914Z,16.3
2022-09-20T15:49:03.175Z,16.2
2022-09-20T15:50:19.398Z,16.1
2022-09-20T15:52:51.889Z,16
2022-09-20T15:54:08.121Z,15.9
2022-09-20T15:55:24.362Z,15.9
2022-09-20T15:56:40.590Z,15.9
2022-09-20T15:57:56.839Z,15.8
2022-09-20T15:59:13.080Z,15.8
2022-09-20T16:00:29.313Z,15.7
2022-09-20T16:01:45.550Z,15.6
2022-09-20T16:03:01.790Z,15.6
2022-09-20T16:04:18.028Z,15.6
2022-09-20T16:05:33.270Z,15.5
2022-09-20T16:06:49.508Z,15.5
2022-09-20T16:08:05.761Z,15.5
2022-09-20T16:09:21.998Z,15.5
2022-09-20T16:10:38.230Z,15.5
2022-09-20T16:11:54.473Z,15.4
2022-09-20T16:13:10.701Z,15.4
2022-09-20T16:14:26.957Z,15.4
2022-09-20T16:15:43.185Z,15.3
2022-09-20T16:16:59.429Z,15.3
2022-09-20T16:18:15.665Z,15.2
2022-09-20T16:19:31.904Z,15.2
2022-09-20T16:20:48.141Z,15.1
2022-09-20T16:22:03.394Z,15.1
2022-09-20T16:23:19.631Z,15.1
2022-09-20T16:24:35.864Z,15
2022-09-20T16:25:52.112Z,15
2022-09-20T16:27:08.354Z,15
2022-09-20T16:28:24.588Z,15
2022-09-20T16:29:40.833Z,14.9
2022-09-20T16:30:57.056Z,14.8
2022-09-20T16:32:13.312Z,14.8
2022-09-20T16:33:29.533Z,14.8
2022-09-20T16:34:45.776Z,14.8
2022-09-20T16:36:02.021Z,14.7
2022-09-20T16:37:18.253Z,14.7
2022-09-20T16:38:33.513Z,14.7
2022-09-20T16:39:49.751Z,14.7
2022-09-20T16:41:05.994Z,14.6
2022-09-20T16:42:22.229Z,14.6
2022-09-20T16:43:38.470Z,14.5
2022-09-20T16:46:10.945Z,14.4
2022-09-20T16:47:27.171Z,14.4
2022-09-20T16:48:43.428Z,14.4
2022-09-20T16:49:59.669Z,14.3
2022-09-20T16:51:15.903Z,14.3
2022-09-20T16:52:32.139Z,14.2
2022-09-20T16:53:48.364Z,14.2
2022-09-20T16:55:03.638Z,14.1
2022-09-20T16:56:19.864Z,14.1
2022-09-20T16:57:36.104Z,14
2022-09-20T16:58:52.354Z,14
2022-09-20T17:00:08.587Z,14
2022-09-20T17:01:24.812Z,13.9
2022-09-20T17:02:41.062Z,13.9
2022-09-20T17:03:57.301Z,13.8
2022-09-20T17:05:13.535Z,13.8
2022-09-20T17:06:29.767Z,13.8
2022-09-20T17:07:46.023Z,13.7
2022-09-20T17:09:02.254Z,13.7
2022-09-20T17:10:18.485Z,13.7
2022-09-20T17:11:33.752Z,13.6
2022-09-20T17:12:49.992Z,13.6
2022-09-20T17:14:06.217Z,13.6
2022-09-20T17:15:22.451Z,13.5
2022-09-20T17:17:54.938Z,13.5
2022-09-20T17:19:10.196Z,13.4
2022-09-20T17:20:26.433Z,13.4
2022-09-20T17:21:42.674Z,13.3
2022-09-20T17:22:58.916Z,13.2
2022-09-20T17:24:15.155Z,13.2
2022-09-20T17:25:31.391Z,13.1
2022-09-20T17:26:47.626Z,13.1
2022-09-20T17:28:03.855Z,13
2022-09-20T17:29:20.101Z,13
2022-09-20T17:30:36.348Z,12.9